createdAt,value
2022-10-29T00:01:12.662Z,11.74
2022-10-29T00:02:44.410Z,11.74
2022-10-29T00:04:16.273Z,11.73
2022-10-29T00:05:57.326Z,11.71
2022-10-29T00:07:29.252Z,11.63
2022-10-29T00:09:00.873Z,11.58
2022-10-29T00:10:32.572Z,11.56
2022-10-29T00:12:04.256Z,11.52
2022-10-29T00:13:35.948Z,11.46
2022-10-29T00:15:07.716Z,11.40
2022-10-29T00:16:39.738Z,11.41
2022-10-29T00:18:11.418Z,11.42
2022-10-29T00:19:42.987Z,11.41
2022-10-29T00:21:15.444Z,11.42
2022-10-29T00:22:47.204Z,11.44
2022-10-29T00:24:18.942Z,11.44
2022-10-29T00:25:50.571Z,11.43
2022-10-29T00:27:22.126Z,11.44
2022-10-29T00:28:54.145Z,11.44
2022-10-29T00:30:26.320Z,11.38
2022-10-29T00:31:58.618Z,11.37
2022-10-29T00:33:30.340Z,11.34
2022-10-29T00:35:01.872Z,11.30
2022-10-29T00:36:33.485Z,11.24
2022-10-29T00:38:04.962Z,11.22
2022-10-29T00:39:37.136Z,11.19
2022-10-29T00:41:09.242Z,11.16
2022-10-29T00:42:40.844Z,11.15
2022-10-29T00:44:16.101Z,11.11
2022-10-29T00:45:49.871Z,11.02
2022-10-29T00:47:21.978Z,10.94
2022-10-29T00:48:53.523Z,10.85
2022-10-29T00:50:25.061Z,10.82
2022-10-29T00:51:57.229Z,10.79
2022-10-29T00:53:29.502Z,10.80
2022-10-29T00:55:01.181Z,10.77
2022-10-29T00:56:33.579Z,10.72
2022-10-29T00:58:05.399Z,10.67
2022-10-29T00:59:36.950Z,10.61
2022-10-29T01:01:08.719Z,10.57
2022-10-29T01:02:40.276Z,10.54
2022-10-29T01:04:11.945Z,10.54
2022-10-29T01:05:43.469Z,10.52
2022-10-29T01:07:15.342Z,10.54
2022-10-29T01:08:46.876Z,10.56
2022-10-29T01:10:19.273Z,10.62
2022-10-29T01:12:01.328Z,10.62
2022-10-29T01:13:51.470Z,10.64
2022-10-29T01:15:23.036Z,10.63
2022-10-29T01:17:13.155Z,10.63
2022-10-29T01:19:04.988Z,10.62
2022-10-29T01:20:55.983Z,10.61
2022-10-29T01:22:36.784Z,10.61
2022-10-29T01:24:14.125Z,10.58
2022-10-29T01:25:51.859Z,10.51
2022-10-29T01:27:26.595Z,10.40
2022-10-29T01:28:58.196Z,10.32
2022-10-29T01:30:38.194Z,10.24
2022-10-29T01:32:12.942Z,10.16
2022-10-29T01:34:03.205Z,10.13
2022-10-29T01:35:43.652Z,10.11
2022-10-29T01:37:17.649Z,10.10
2022-10-29T01:38:58.107Z,10.05
2022-10-29T01:40:48.436Z,9.97
2022-10-29T01:42:26.526Z,9.86
2022-10-29T01:43:59.679Z,9.77
2022-10-29T01:45:31.277Z,9.71
2022-10-29T01:47:03.226Z,9.65
2022-10-29T01:48:36.048Z,9.58
2022-10-29T01:50:08.414Z,9.54
2022-10-29T01:51:39.987Z,9.53
2022-10-29T01:53:11.625Z,9.53
2022-10-29T01:54:43.538Z,9.63
2022-10-29T01:56:15.278Z,9.66
2022-10-29T01:57:46.900Z,9.70
2022-10-29T01:59:29.065Z,9.75
2022-10-29T02:01:10.654Z,9.79
2022-10-29T02:02:54.615Z,9.80
2022-10-29T02:04:32.453Z,9.76
2022-10-29T02:06:10.073Z,9.76
2022-10-29T02:07:45.748Z,9.77
2022-10-29T02:09:20.941Z,9.73
2022-10-29T02:11:11.300Z,9.71
2022-10-29T02:12:55.336Z,9.70
2022-10-29T02:14:30.726Z,9.67
2022-10-29T02:16:02.973Z,9.64
2022-10-29T02:17:34.653Z,9.61
2022-10-29T02:19:06.281Z,9.60
2022-10-29T02:20:42.141Z,9.60
2022-10-29T02:22:13.694Z,9.58
2022-10-29T02:23:45.454Z,9.53
2022-10-29T02:25:17.145Z,9.50
2022-10-29T02:26:49.507Z,9.44
2022-10-29T02:29:57.554Z,9.41
2022-10-29T02:31:29.363Z,9.46
2022-10-29T02:33:00.829Z,9.50
2022-10-29T02:34:32.335Z,9.53
2022-10-29T02:36:04.121Z,9.52
2022-10-29T02:37:35.657Z,9.47
2022-10-29T02:39:07.336Z,9.39
2022-10-29T02:40:39.031Z,9.37
2022-10-29T02:42:10.730Z,9.33
2022-10-29T02:43:42.297Z,9.31
2022-10-29T02:45:13.973Z,9.28
2022-10-29T02:46:45.473Z,9.21
2022-10-29T02:48:17.276Z,9.18
2022-10-29T02:49:48.843Z,9.08
2022-10-29T02:51:20.457Z,8.99
2022-10-29T02:52:51.967Z,8.94
2022-10-29T02:54:23.608Z,8.92
2022-10-29T02:55:55.150Z,8.87
2022-10-29T02:57:26.734Z,8.83
2022-10-29T02:58:58.459Z,8.82
2022-10-29T03:00:30.165Z,8.79
2022-10-29T03:02:01.891Z,8.81
2022-10-29T03:03:33.731Z,8.83
2022-10-29T03:05:05.439Z,8.91
2022-10-29T03:06:37.091Z,8.94
2022-10-29T03:08:08.654Z,8.96
2022-10-29T03:09:40.541Z,9.03
2022-10-29T03:11:12.189Z,9.11
2022-10-29T03:12:43.761Z,9.15
2022-10-29T03:14:15.274Z,9.16
2022-10-29T03:15:46.971Z,9.14
2022-10-29T03:17:18.474Z,9.13
2022-10-29T03:18:50.046Z,9.13
2022-10-29T03:20:21.638Z,9.12
2022-10-29T03:21:53.227Z,9.13
2022-10-29T03:23:24.799Z,9.12
2022-10-29T03:24:56.415Z,9.12
2022-10-29T03:26:27.923Z,9.12
2022-10-29T03:27:59.969Z,9.16
2022-10-29T03:29:31.871Z,9.17
2022-10-29T03:31:03.461Z,9.19
2022-10-29T03:32:35.336Z,9.20
2022-10-29T03:34:06.902Z,9.20
2022-10-29T03:35:38.749Z,9.23
2022-10-29T03:37:10.359Z,9.27
2022-10-29T03:38:41.948Z,9.29
2022-10-29T03:40:13.590Z,9.30
2022-10-29T03:41:45.250Z,9.29
2022-10-29T03:43:16.948Z,9.23
2022-10-29T03:44:48.464Z,9.14
2022-10-29T03:46:20.147Z,9.09
2022-10-29T03:47:51.889Z,9.04
2022-10-29T03:49:24.088Z,9.01
2022-10-29T03:50:59.433Z,9.03
2022-10-29T03:52:30.963Z,9.07
2022-10-29T03:54:02.503Z,9.08
2022-10-29T03:55:34.331Z,9.07
2022-10-29T03:57:05.934Z,9.04
2022-10-29T03:58:37.593Z,9.06
2022-10-29T04:00:09.704Z,9.02
2022-10-29T04:01:41.421Z,8.98
2022-10-29T04:03:13.232Z,8.96
2022-10-29T04:04:45.450Z,8.92
2022-10-29T04:06:18.428Z,8.90
2022-10-29T04:07:50.289Z,8.88
2022-10-29T04:09:21.893Z,8.85
2022-10-29T04:10:53.606Z,8.84
2022-10-29T04:12:25.251Z,8.87
2022-10-29T04:13:56.873Z,8.90
2022-10-29T04:15:28.735Z,8.87
2022-10-29T04:17:00.350Z,8.89
2022-10-29T04:18:32.001Z,8.85
2022-10-29T04:20:07.017Z,8.85
2022-10-29T04:29:12.367Z,8.74
2022-10-29T04:30:43.964Z,8.66
2022-10-29T04:32:15.565Z,8.65
2022-10-29T04:33:47.248Z,8.60
2022-10-29T04:35:18.883Z,8.55
2022-10-29T04:36:52.383Z,8.54
2022-10-29T04:38:23.989Z,8.55
2022-10-29T04:39:55.587Z,8.55
2022-10-29T04:41:27.174Z,8.56
2022-10-29T04:42:59.190Z,8.57
2022-10-29T04:44:31.045Z,8.61
2022-10-29T04:46:03.122Z,8.63
2022-10-29T04:47:34.856Z,8.66
2022-10-29T04:49:06.601Z,8.63
2022-10-29T04:50:38.233Z,8.62
2022-10-29T04:52:09.812Z,8.62
2022-10-29T04:53:41.797Z,8.66
2022-10-29T04:55:13.467Z,8.66
2022-10-29T04:56:45.138Z,8.68
2022-10-29T04:58:17.736Z,8.69
2022-10-29T04:59:49.265Z,8.66
2022-10-29T05:01:21.491Z,8.61
2022-10-29T05:02:53.720Z,8.58
2022-10-29T05:04:25.599Z,8.53
2022-10-29T05:05:57.321Z,8.53
2022-10-29T05:07:29.240Z,8.52
2022-10-29T05:09:01.138Z,8.50
2022-10-29T05:10:33.581Z,8.51
2022-10-29T05:12:05.380Z,8.52
2022-10-29T05:13:36.995Z,8.52
2022-10-29T05:15:08.760Z,8.48
2022-10-29T05:16:40.482Z,8.40
2022-10-29T05:18:12.255Z,8.35
2022-10-29T05:19:44.360Z,8.33
2022-10-29T05:21:15.981Z,8.26
2022-10-29T05:22:47.725Z,8.21
2022-10-29T05:24:19.336Z,8.20
2022-10-29T05:25:53.700Z,8.23
2022-10-29T05:27:25.596Z,8.34
2022-10-29T05:28:58.339Z,8.43
2022-10-29T05:30:29.873Z,8.57
2022-10-29T05:32:01.701Z,8.73
2022-10-29T05:33:33.405Z,8.92
2022-10-29T05:35:05.250Z,9.05
2022-10-29T05:36:36.861Z,9.20
2022-10-29T05:38:09.465Z,9.34
2022-10-29T05:39:41.355Z,9.49
2022-10-29T05:41:13.215Z,9.62
2022-10-29T05:42:47.330Z,9.75
2022-10-29T05:44:19.866Z,9.89
2022-10-29T05:45:53.410Z,10.00
2022-10-29T05:47:25.096Z,10.16
2022-10-29T05:48:56.807Z,10.29
2022-10-29T05:50:28.813Z,10.44
2022-10-29T05:52:00.519Z,10.59
2022-10-29T05:53:32.330Z,10.72
2022-10-29T05:55:04.095Z,10.86
2022-10-29T05:56:35.886Z,10.97
2022-10-29T05:58:09.362Z,11.13
2022-10-29T05:59:41.130Z,11.28
2022-10-29T06:01:13.148Z,11.46
2022-10-29T06:02:44.864Z,11.63
2022-10-29T06:04:16.693Z,11.75
2022-10-29T06:05:48.544Z,11.86
2022-10-29T06:07:20.173Z,11.95
2022-10-29T06:08:51.962Z,12.02
2022-10-29T06:10:23.958Z,12.13
2022-10-29T06:11:55.704Z,12.23
2022-10-29T06:13:27.354Z,12.33
2022-10-29T06:14:59.411Z,12.42
2022-10-29T06:16:31.395Z,12.45
2022-10-29T06:18:03.042Z,12.45
2022-10-29T06:19:34.719Z,12.47
2022-10-29T06:21:07.073Z,12.56
2022-10-29T06:22:38.763Z,12.49
2022-10-29T06:24:10.984Z,12.40
2022-10-29T06:25:42.581Z,12.44
2022-10-29T06:27:14.526Z,12.47
2022-10-29T06:28:46.207Z,12.39
2022-10-29T06:30:17.905Z,12.31
2022-10-29T06:31:49.702Z,12.21
2022-10-29T06:33:21.826Z,12.12
2022-10-29T06:34:53.455Z,12.21
2022-10-29T06:36:25.015Z,12.30
2022-10-29T06:37:57.136Z,12.36
2022-10-29T06:39:28.898Z,12.50
2022-10-29T06:41:00.784Z,12.63
2022-10-29T06:42:32.502Z,12.67
2022-10-29T06:44:05.375Z,12.77
2022-10-29T06:45:37.297Z,12.86
2022-10-29T06:47:09.001Z,12.93
2022-10-29T06:48:40.732Z,13.07
2022-10-29T06:50:12.689Z,13.20
2022-10-29T06:51:44.407Z,13.30
2022-10-29T06:53:16.841Z,13.39
2022-10-29T06:54:48.580Z,13.46
2022-10-29T06:56:20.836Z,13.49
2022-10-29T06:57:58.593Z,13.60
2022-10-29T06:59:30.553Z,13.66
2022-10-29T07:01:02.532Z,13.71
2022-10-29T07:02:34.519Z,13.73
2022-10-29T07:04:06.410Z,13.75
2022-10-29T07:05:38.095Z,13.80
2022-10-29T07:07:09.796Z,13.80
2022-10-29T07:08:42.092Z,13.78
2022-10-29T07:10:13.827Z,13.80
2022-10-29T07:11:45.668Z,13.97
2022-10-29T07:13:17.581Z,14.17
2022-10-29T07:14:49.862Z,14.34
2022-10-29T07:39:10.291Z,16.16
2022-10-29T07:40:51.718Z,16.28
2022-10-29T07:42:23.612Z,16.32
2022-10-29T07:43:56.808Z,16.31
2022-10-29T07:45:28.894Z,16.40
2022-10-29T07:47:02.353Z,16.50
2022-10-29T07:48:37.576Z,16.59
2022-10-29T07:50:09.573Z,16.69
2022-10-29T07:51:42.162Z,16.60
2022-10-29T07:53:13.972Z,16.53
2022-10-29T07:54:45.919Z,16.66
2022-10-29T07:56:18.076Z,16.59
2022-10-29T07:57:55.579Z,16.58
2022-10-29T07:59:27.700Z,16.65
2022-10-29T08:00:59.867Z,16.70
2022-10-29T08:02:31.589Z,16.77
2022-10-29T08:04:03.327Z,16.82
2022-10-29T08:05:35.090Z,16.87
2022-10-29T08:07:06.760Z,16.96
2022-10-29T08:08:38.605Z,17.09
2022-10-29T08:10:10.468Z,17.14
2022-10-29T08:11:42.179Z,17.19
2022-10-29T08:13:13.919Z,17.36
2022-10-29T08:14:45.942Z,17.52
2022-10-29T08:16:17.560Z,17.69
2022-10-29T08:17:49.600Z,17.82
2022-10-29T08:19:21.530Z,17.95
2022-10-29T08:21:37.529Z,18.09
2022-10-29T08:23:09.594Z,18.22
2022-10-29T08:24:41.403Z,18.27
2022-10-29T08:26:13.724Z,18.29
2022-10-29T08:27:45.449Z,18.27
2022-10-29T08:29:17.478Z,18.25
2022-10-29T08:30:50.029Z,18.29
2022-10-29T08:32:21.996Z,18.39
2022-10-29T08:33:53.959Z,18.55
2022-10-29T08:35:25.795Z,18.71
2022-10-29T08:36:57.722Z,18.81
2022-10-29T08:38:33.396Z,18.95
2022-10-29T08:40:05.638Z,19.12
2022-10-29T08:42:05.289Z,19.19
2022-10-29T08:43:47.733Z,19.23
2022-10-29T08:45:19.644Z,19.18
2022-10-29T08:47:11.717Z,19.09
2022-10-29T08:48:49.342Z,18.96
2022-10-29T08:50:41.205Z,18.88
2022-10-29T08:52:26.821Z,18.89
2022-10-29T08:54:25.418Z,18.88
2022-10-29T08:55:53.262Z,18.98
2022-10-29T08:57:24.985Z,19.06
2022-10-29T08:59:14.699Z,19.14
2022-10-29T09:00:46.459Z,19.16
2022-10-29T09:02:18.585Z,19.31
2022-10-29T09:03:51.124Z,19.45
2022-10-29T09:05:27.418Z,19.62
2022-10-29T09:13:14.302Z,19.98
2022-10-29T09:15:04.915Z,20.21
2022-10-29T09:17:05.077Z,20.35
2022-10-29T09:18:36.811Z,20.52
2022-10-29T09:20:08.772Z,20.65
2022-10-29T09:21:43.283Z,20.82
2022-10-29T09:23:15.927Z,21.00
2022-10-29T09:25:09.072Z,21.18
2022-10-29T09:26:41.078Z,21.33
2022-10-29T09:28:31.784Z,21.37
2022-10-29T09:30:09.317Z,21.48
2022-10-29T09:32:02.231Z,21.59
2022-10-29T09:33:34.395Z,21.74
2022-10-29T09:35:08.337Z,21.92
2022-10-29T09:36:45.913Z,22.05
2022-10-29T09:38:33.896Z,22.12
2022-10-29T09:48:29.971Z,22.28
2022-10-29T09:50:17.253Z,22.42
2022-10-29T09:52:21.659Z,22.63
2022-10-29T09:54:03.583Z,22.75
2022-10-29T09:57:44.879Z,22.97
2022-10-29T09:59:16.734Z,23.09
2022-10-29T10:01:02.511Z,23.19
2022-10-29T10:02:35.433Z,23.22
2022-10-29T10:04:11.878Z,23.25
2022-10-29T10:06:03.081Z,23.34
2022-10-29T10:08:01.656Z,23.42
2022-10-29T10:10:00.389Z,23.63
2022-10-29T10:11:53.668Z,23.84
2022-10-29T10:13:32.669Z,23.99
2022-10-29T10:15:05.256Z,24.02
2022-10-29T10:16:48.648Z,24.08
2022-10-29T10:18:27.023Z,24.14
2022-10-29T10:20:05.477Z,24.20
2022-10-29T10:21:39.937Z,24.23
2022-10-29T10:23:39.165Z,24.30
2022-10-29T10:25:31.843Z,24.49
2022-10-29T10:27:23.610Z,24.63
2022-10-29T10:29:16.974Z,24.77
2022-10-29T10:31:07.681Z,24.90
2022-10-29T10:32:39.661Z,25.12
2022-10-29T10:34:36.028Z,25.27
2022-10-29T10:36:11.311Z,25.41
2022-10-29T10:37:55.439Z,25.59
2022-10-29T10:39:31.554Z,25.80
2022-10-29T10:41:07.562Z,26.00
2022-10-29T10:42:39.817Z,26.13
2022-10-29T10:44:13.281Z,26.34
2022-10-29T10:45:46.864Z,26.38
2022-10-29T10:47:22.194Z,26.47
2022-10-29T10:49:03.957Z,26.55
2022-10-29T10:50:36.779Z,26.50
2022-10-29T10:52:55.750Z,26.61
2022-10-29T10:54:33.754Z,26.69
2022-10-29T10:56:06.173Z,26.80
2022-10-29T10:57:44.744Z,26.96
2022-10-29T10:59:23.925Z,27.10
2022-10-29T11:00:59.315Z,27.19
2022-10-29T11:02:36.070Z,27.31
2022-10-29T11:04:15.822Z,27.46
2022-10-29T11:06:13.025Z,27.47
2022-10-29T11:07:44.765Z,27.52
2022-10-29T11:11:27.991Z,27.73
2022-10-29T11:13:00.410Z,27.77
2022-10-29T11:14:36.817Z,27.79
2022-10-29T11:16:13.249Z,27.88
2022-10-29T11:17:55.652Z,27.81
2022-10-29T11:19:36.830Z,27.74
2022-10-29T11:21:14.775Z,27.82
2022-10-29T11:22:51.929Z,27.96
2022-10-29T11:24:25.258Z,27.96
2022-10-29T11:26:00.438Z,28.05
2022-10-29T11:27:49.493Z,28.11
2022-10-29T11:29:40.011Z,28.18
2022-10-29T11:33:34.908Z,28.28
2022-10-29T11:35:11.737Z,28.28
2022-10-29T11:37:07.414Z,28.28
2022-10-29T11:39:03.670Z,28.27
2022-10-29T11:43:15.592Z,28.15
2022-10-29T11:48:04.020Z,28.06
2022-10-29T11:52:42.648Z,27.85
2022-10-29T12:01:41.551Z,28.24
2022-10-29T12:13:43.010Z,28.66
2022-10-29T12:15:35.701Z,28.78
2022-10-29T12:17:21.631Z,28.82
2022-10-29T12:19:26.131Z,28.83
2022-10-29T12:21:21.012Z,28.79
2022-10-29T12:23:04.874Z,28.73
2022-10-29T12:24:43.968Z,28.67
2022-10-29T12:26:21.128Z,28.71
2022-10-29T12:28:34.647Z,28.71
2022-10-29T12:34:01.855Z,28.67
2022-10-29T12:39:50.766Z,28.56
2022-10-29T12:41:54.627Z,28.52
2022-10-29T12:43:30.288Z,28.52
2022-10-29T12:45:24.455Z,28.57
2022-10-29T12:47:08.121Z,28.68
2022-10-29T12:48:55.213Z,28.80
2022-10-29T12:50:47.358Z,28.87
2022-10-29T12:52:46.463Z,28.90
2022-10-29T13:10:31.548Z,29.12
2022-10-29T13:12:05.183Z,29.18
2022-10-29T13:13:38.369Z,29.18
2022-10-29T13:15:11.481Z,29.17
2022-10-29T13:16:43.418Z,29.19
2022-10-29T13:18:18.219Z,29.22
2022-10-29T13:19:55.033Z,29.21
2022-10-29T13:21:48.527Z,29.21
2022-10-29T13:23:23.387Z,29.18
2022-10-29T13:27:08.168Z,29.04
2022-10-29T13:28:42.158Z,28.94
2022-10-29T13:30:18.313Z,28.93
2022-10-29T13:35:41.960Z,28.78
2022-10-29T13:37:44.077Z,28.74
2022-10-29T13:39:21.929Z,28.74
2022-10-29T13:41:08.274Z,28.73
2022-10-29T13:42:44.194Z,28.71
2022-10-29T13:44:28.443Z,28.66
2022-10-29T13:46:14.967Z,28.65
2022-10-29T13:47:50.367Z,28.67
2022-10-29T13:49:26.449Z,28.63
2022-10-29T13:51:07.980Z,28.61
2022-10-29T13:52:50.255Z,28.53
2022-10-29T13:54:43.077Z,28.46
2022-10-29T13:56:19.106Z,28.38
2022-10-29T13:59:35.223Z,28.37
2022-10-29T14:00:33.435Z,28.30
2022-10-29T14:04:32.473Z,28.14
2022-10-29T14:06:12.639Z,28.02
2022-10-29T14:07:54.340Z,27.91
2022-10-29T14:28:51.745Z,26.25
2022-10-29T14:30:23.666Z,26.26
2022-10-29T14:32:15.865Z,26.23
2022-10-29T14:33:57.611Z,26.17
2022-10-29T14:35:29.460Z,26.09
2022-10-29T14:37:04.827Z,25.97
2022-10-29T14:38:41.243Z,25.85
2022-10-29T14:40:22.400Z,25.69
2022-10-29T14:41:54.664Z,25.57
2022-10-29T14:43:26.756Z,25.54
2022-10-29T14:44:58.418Z,25.49
2022-10-29T14:46:30.768Z,25.51
2022-10-29T14:48:05.554Z,25.48
2022-10-29T14:49:39.496Z,25.42
2022-10-29T14:51:18.187Z,25.39
2022-10-29T14:52:53.798Z,25.26
2022-10-29T14:54:29.313Z,25.07
2022-10-29T14:56:02.123Z,24.99
2022-10-29T14:57:34.366Z,24.87
2022-10-29T14:59:10.828Z,24.77
2022-10-29T15:00:51.699Z,24.66
2022-10-29T15:02:37.727Z,24.60
2022-10-29T15:04:16.738Z,24.56
2022-10-29T15:05:48.919Z,24.49
2022-10-29T15:07:22.744Z,24.44
2022-10-29T15:08:58.645Z,24.35
2022-10-29T15:10:30.376Z,24.22
2022-10-29T15:12:03.088Z,24.07
2022-10-29T15:13:35.170Z,23.88
2022-10-29T15:15:09.706Z,23.72
2022-10-29T15:16:42.477Z,23.49
2022-10-29T15:18:17.538Z,23.35
2022-10-29T15:19:52.265Z,23.24
2022-10-29T15:21:24.186Z,23.04
2022-10-29T15:22:56.258Z,22.93
2022-10-29T15:24:28.164Z,22.77
2022-10-29T15:26:01.239Z,22.68
2022-10-29T15:27:34.788Z,22.57
2022-10-29T15:29:09.426Z,22.43
2022-10-29T15:30:41.975Z,22.36
2022-10-29T15:32:14.531Z,22.29
2022-10-29T15:33:46.548Z,22.17
2022-10-29T15:35:19.630Z,22.06
2022-10-29T15:36:52.103Z,22.03
2022-10-29T15:38:35.558Z,21.94
2022-10-29T15:40:12.439Z,21.87
2022-10-29T15:41:48.260Z,21.82
2022-10-29T15:43:32.982Z,21.72
2022-10-29T15:45:07.562Z,21.60
2022-10-29T15:46:48.735Z,21.53
2022-10-29T15:48:26.016Z,21.45
2022-10-29T15:49:57.580Z,21.29
2022-10-29T15:51:29.593Z,21.21
2022-10-29T15:53:06.163Z,21.10
2022-10-29T15:54:37.806Z,20.97
2022-10-29T15:56:13.222Z,20.81
2022-10-29T15:57:47.825Z,20.64
2022-10-29T15:59:20.476Z,20.48
2022-10-29T16:00:52.335Z,20.38
2022-10-29T16:02:27.018Z,20.34
2022-10-29T16:03:58.872Z,20.27
2022-10-29T16:05:30.963Z,20.20
2022-10-29T16:07:02.568Z,20.02
2022-10-29T16:08:35.416Z,19.89
2022-10-29T16:10:07.329Z,19.79
2022-10-29T16:11:38.963Z,19.75
2022-10-29T16:13:11.113Z,19.71
2022-10-29T16:14:44.656Z,19.63
2022-10-29T16:16:19.758Z,19.58
2022-10-29T16:17:51.412Z,19.60
2022-10-29T16:19:23.547Z,19.55
2022-10-29T16:20:58.674Z,19.46
2022-10-29T16:22:30.426Z,19.36
2022-10-29T16:24:02.545Z,19.27
2022-10-29T16:25:34.484Z,19.20
2022-10-29T16:27:13.950Z,19.22
2022-10-29T16:28:45.713Z,19.22
2022-10-29T16:30:17.921Z,19.20
2022-10-29T16:31:49.752Z,19.13
2022-10-29T16:33:21.583Z,19.07
2022-10-29T16:34:53.344Z,18.99
2022-10-29T16:36:25.244Z,18.90
2022-10-29T16:37:57.202Z,18.82
2022-10-29T16:39:28.931Z,18.77
2022-10-29T16:41:00.745Z,18.76
2022-10-29T16:42:33.852Z,18.75
2022-10-29T16:44:05.789Z,18.76
2022-10-29T16:45:39.796Z,18.76
2022-10-29T16:47:13.813Z,18.77
2022-10-29T16:48:46.483Z,18.74
2022-10-29T16:50:19.734Z,18.74
2022-10-29T16:51:52.360Z,18.74
2022-10-29T16:53:28.320Z,18.72
2022-10-29T16:55:00.243Z,18.69
2022-10-29T16:56:33.345Z,18.67
2022-10-29T16:58:17.409Z,18.65
2022-10-29T16:59:51.508Z,18.62
2022-10-29T17:01:24.521Z,18.63
2022-10-29T17:02:56.689Z,18.66
2022-10-29T17:04:28.607Z,18.70
2022-10-29T17:06:04.637Z,18.75
2022-10-29T17:07:36.516Z,18.77
2022-10-29T17:09:08.682Z,18.77
2022-10-29T17:10:40.324Z,18.75
2022-10-29T17:12:12.216Z,18.76
2022-10-29T17:13:44.061Z,18.76
2022-10-29T17:15:18.263Z,18.76
2022-10-29T17:16:50.355Z,18.80
2022-10-29T17:18:23.284Z,18.83
2022-10-29T17:19:55.292Z,18.90
2022-10-29T17:21:27.193Z,18.91
2022-10-29T17:22:58.734Z,18.88
2022-10-29T17:24:30.538Z,18.87
2022-10-29T17:26:02.322Z,18.76
2022-10-29T17:27:34.979Z,18.71
2022-10-29T17:29:07.572Z,18.66
2022-10-29T17:30:41.796Z,18.58
2022-10-29T17:32:13.845Z,18.50
2022-10-29T17:33:46.085Z,18.46
2022-10-29T17:35:17.730Z,18.39
2022-10-29T17:36:49.817Z,18.34
2022-10-29T17:38:21.557Z,18.30
2022-10-29T17:39:53.279Z,18.25
2022-10-29T17:41:24.960Z,18.20
2022-10-29T17:43:02.927Z,18.12
2022-10-29T17:44:36.598Z,18.07
2022-10-29T17:46:08.850Z,18.03
2022-10-29T17:49:18.142Z,17.87
2022-10-29T17:50:56.931Z,17.79
2022-10-29T17:52:29.584Z,17.65
2022-10-29T17:54:01.528Z,17.49
2022-10-29T17:55:33.142Z,17.34
2022-10-29T17:57:05.474Z,17.19
2022-10-29T17:58:38.222Z,17.08
2022-10-29T18:00:10.259Z,16.98
2022-10-29T18:01:43.346Z,16.86
2022-10-29T18:03:15.950Z,16.77
2022-10-29T18:04:48.031Z,16.74
2022-10-29T18:06:20.023Z,16.74
2022-10-29T18:07:51.962Z,16.76
2022-10-29T18:09:23.794Z,16.77
2022-10-29T18:11:01.925Z,16.77
2022-10-29T18:12:33.814Z,16.76
2022-10-29T18:14:05.685Z,16.77
2022-10-29T18:15:38.071Z,16.79
2022-10-29T18:17:09.922Z,16.80
2022-10-29T18:18:54.511Z,16.83
2022-10-29T18:20:33.797Z,16.85
2022-10-29T18:22:06.453Z,16.82
2022-10-29T18:23:38.359Z,16.76
2022-10-29T18:25:13.147Z,16.69
2022-10-29T18:26:48.012Z,16.59
2022-10-29T18:28:19.794Z,16.54
2022-10-29T18:29:51.707Z,16.49
2022-10-29T18:31:24.329Z,16.44
2022-10-29T18:32:56.531Z,16.43
2022-10-29T18:34:28.981Z,16.47
2022-10-29T18:36:00.732Z,16.51
2022-10-29T18:37:32.638Z,16.51
2022-10-29T18:39:05.404Z,16.49
2022-10-29T18:40:37.877Z,16.54
2022-10-29T18:42:09.795Z,16.59
2022-10-29T18:43:41.994Z,16.62
2022-10-29T18:45:13.683Z,16.62
2022-10-29T18:46:45.490Z,16.68
2022-10-29T18:48:17.843Z,16.73
2022-10-29T18:49:49.870Z,16.79
2022-10-29T18:51:28.592Z,16.82
2022-10-29T18:53:00.988Z,16.84
2022-10-29T18:54:32.963Z,16.85
2022-10-29T18:56:06.202Z,16.79
2022-10-29T18:57:37.915Z,16.73
2022-10-29T18:59:10.125Z,16.69
2022-10-29T19:00:42.461Z,16.68
2022-10-29T19:02:14.727Z,16.66
2022-10-29T19:03:53.637Z,16.62
2022-10-29T19:05:25.317Z,16.56
2022-10-29T19:06:56.970Z,16.57
2022-10-29T19:08:29.318Z,16.60
2022-10-29T19:10:00.982Z,16.59
2022-10-29T19:11:32.743Z,16.59
2022-10-29T19:13:05.435Z,16.58
2022-10-29T19:14:37.378Z,16.58
2022-10-29T19:16:13.716Z,16.57
2022-10-29T19:17:46.096Z,16.51
2022-10-29T19:19:21.165Z,16.50
2022-10-29T19:20:56.196Z,16.50
2022-10-29T19:22:27.834Z,16.47
2022-10-29T19:24:00.039Z,16.43
2022-10-29T19:25:36.364Z,16.32
2022-10-29T19:27:10.540Z,16.14
2022-10-29T19:28:42.823Z,16.06
2022-10-29T19:30:14.844Z,15.97
2022-10-29T19:31:47.131Z,15.94
2022-10-29T19:33:19.004Z,15.90
2022-10-29T19:34:50.730Z,15.88
2022-10-29T19:36:22.642Z,15.85
2022-10-29T19:37:54.590Z,15.82
2022-10-29T19:39:26.876Z,15.78
2022-10-29T19:40:59.147Z,15.77
2022-10-29T19:42:31.225Z,15.74
2022-10-29T19:44:02.976Z,15.70
2022-10-29T19:45:34.838Z,15.65
2022-10-29T19:47:06.896Z,15.65
2022-10-29T19:48:38.818Z,15.60
2022-10-29T19:50:10.411Z,15.61
2022-10-29T19:51:42.100Z,15.58
2022-10-29T19:53:13.761Z,15.56
2022-10-29T19:54:46.203Z,15.57
2022-10-29T19:56:17.788Z,15.56
2022-10-29T19:57:49.475Z,15.54
2022-10-29T19:59:21.098Z,15.54
2022-10-29T20:00:53.178Z,15.55
2022-10-29T20:02:24.887Z,15.54
2022-10-29T20:03:56.894Z,15.52
2022-10-29T20:05:28.958Z,15.50
2022-10-29T20:07:01.090Z,15.50
2022-10-29T20:08:32.655Z,15.52
2022-10-29T20:10:05.239Z,15.48
2022-10-29T20:11:37.237Z,15.42
2022-10-29T20:13:09.124Z,15.35
2022-10-29T20:14:40.748Z,15.32
2022-10-29T20:16:13.974Z,15.32
2022-10-29T20:17:45.519Z,15.33
2022-10-29T20:19:17.188Z,15.36
2022-10-29T20:20:57.566Z,15.38
2022-10-29T20:22:29.140Z,15.32
2022-10-29T20:24:01.642Z,15.24
2022-10-29T20:25:33.212Z,15.18
2022-10-29T20:27:04.716Z,15.15
2022-10-29T20:28:36.549Z,15.16
2022-10-29T20:30:08.541Z,15.20
2022-10-29T20:31:41.479Z,15.23
2022-10-29T20:33:13.337Z,15.24
2022-10-29T20:34:44.886Z,15.17
2022-10-29T20:36:16.528Z,15.15
2022-10-29T20:37:48.176Z,15.14
2022-10-29T20:39:20.271Z,15.12
2022-10-29T20:40:52.696Z,15.08
2022-10-29T20:42:24.768Z,15.05
2022-10-29T20:43:57.379Z,15.02
2022-10-29T20:45:29.612Z,14.99
2022-10-29T20:47:01.348Z,14.96
2022-10-29T20:48:36.392Z,14.92
2022-10-29T20:50:08.656Z,14.87
2022-10-29T20:51:40.336Z,14.85
2022-10-29T20:53:12.028Z,14.83
2022-10-29T20:54:43.869Z,14.85
2022-10-29T20:56:16.535Z,14.85
2022-10-29T20:57:48.658Z,14.85
2022-10-29T20:59:20.208Z,14.80
2022-10-29T21:00:52.112Z,14.70
2022-10-29T21:02:23.972Z,14.57
2022-10-29T21:03:55.636Z,14.46
2022-10-29T21:05:27.188Z,14.35
2022-10-29T21:06:58.727Z,14.24
2022-10-29T21:08:30.472Z,14.15
2022-10-29T21:10:02.119Z,14.14
2022-10-29T21:11:33.677Z,14.11
2022-10-29T21:13:05.587Z,14.08
2022-10-29T21:14:37.159Z,14.06
2022-10-29T21:16:24.953Z,14.08
2022-10-29T21:17:58.894Z,14.05
2022-10-29T21:19:32.179Z,14.05
2022-10-29T21:21:04.278Z,14.12
2022-10-29T21:22:35.783Z,14.12
2022-10-29T21:24:07.628Z,14.12
2022-10-29T21:25:39.195Z,14.15
2022-10-29T21:27:11.332Z,14.14
2022-10-29T21:28:42.952Z,14.15
2022-10-29T21:30:14.630Z,14.13
2022-10-29T21:31:48.753Z,14.15
2022-10-29T21:33:20.474Z,14.18
2022-10-29T21:34:52.395Z,14.21
2022-10-29T21:36:24.077Z,14.18
2022-10-29T21:37:56.149Z,14.14
2022-10-29T21:39:30.052Z,14.09
2022-10-29T21:41:04.198Z,14.05
2022-10-29T21:42:35.791Z,14.00
2022-10-29T21:44:07.366Z,13.96
2022-10-29T21:45:39.279Z,13.95
2022-10-29T21:47:11.552Z,13.93
2022-10-29T21:48:43.331Z,13.91
2022-10-29T21:50:14.998Z,13.91
2022-10-29T21:51:48.458Z,13.89
2022-10-29T21:53:20.174Z,13.85
2022-10-29T21:54:52.223Z,13.80
2022-10-29T21:56:24.372Z,13.79
2022-10-29T21:57:56.557Z,13.79
2022-10-29T21:59:28.341Z,13.74
2022-10-29T22:01:04.219Z,13.71
2022-10-29T22:02:35.869Z,13.68
2022-10-29T22:04:07.500Z,13.68
2022-10-29T22:05:39.143Z,13.70
2022-10-29T22:07:10.677Z,13.74
2022-10-29T22:08:42.284Z,13.75
2022-10-29T22:10:13.995Z,13.74
2022-10-29T22:11:45.686Z,13.74
2022-10-29T22:13:17.265Z,13.74
2022-10-29T22:14:49.073Z,13.67
2022-10-29T22:16:21.502Z,13.62
2022-10-29T22:17:53.067Z,13.57
2022-10-29T22:19:24.594Z,13.56
2022-10-29T22:21:03.112Z,13.55
2022-10-29T22:22:34.821Z,13.54
2022-10-29T22:24:06.713Z,13.53
2022-10-29T22:25:38.256Z,13.51
2022-10-29T22:27:10.243Z,13.46
2022-10-29T22:28:42.013Z,13.45
2022-10-29T22:30:14.013Z,13.45
2022-10-29T22:31:45.644Z,13.45
2022-10-29T22:33:17.313Z,13.42
2022-10-29T22:34:48.866Z,13.39
2022-10-29T22:36:21.404Z,13.35
2022-10-29T22:37:53.518Z,13.31
2022-10-29T22:39:25.880Z,13.32
2022-10-29T22:40:57.608Z,13.27
2022-10-29T22:42:29.444Z,13.15